Time;durP1;ratioP1;P1;durP2;ratioP2;P2;SDS_P1;SDS_P2;PMS_P1;PMS_P2;Temp;Humidity;BMP_temperature;BMP_pressure;BME280_temperature;BME280_humidity;BME280_pressure;Samples;Min_cycle;Max_cycle;Signal;HPM_P1;HPM_P2
2021/01/09 00:02:08;;;;;;;;;;;;;;;1.22;90.13;100822.84;1675719;84;20714;-79
2021/01/09 00:04:34;;;;;;;;;;;;;;;1.23;90.14;100826.25;1667684;84;20275;-79
2021/01/09 00:07:00;;;;;;;;;;;;;;;1.24;90.14;100825.01;1664425;84;20297;-79
2021/01/09 00:09:26;;;;;;;;;;;;;;;1.24;90.14;100820.33;1682242;84;20380;-79
2021/01/09 00:11:52;;;;;;;;;;;;;;;1.24;90.14;100827.56;1669057;84;20211;-79
2021/01/09 00:14:20;;;;;;;;;;;;;;;1.24;90.12;100826.70;1673458;84;21144;-79
2021/01/09 00:16:47;;;;;;;;;;;;;;;1.23;90.15;100828.38;1684684;84;20288;-79
2021/01/09 00:19:13;;;;;;;;;;;;;;;1.24;90.15;100829.24;1678376;84;20679;-79
2021/01/09 00:21:39;;;;;;;;;;;;;;;1.24;90.13;100831.79;1671324;84;20380;-78
2021/01/09 00:24:07;;;;;;;;;;;;;;;1.24;90.15;100831.79;1661970;84;20312;-78
2021/01/09 00:26:34;;;;;;;;;;;;;;;1.24;90.14;100831.79;1684769;84;21240;-79
2021/01/09 00:28:59;;;;;;;;;;;;;;;1.22;90.12;100835.57;1668846;84;20640;-79
2021/01/09 00:31:25;;;;;;;;;;;;;;;1.24;90.16;100837.75;1690895;84;20243;-79
2021/01/09 00:33:51;;;;;;;;;;;;;;;1.24;90.15;100839.43;1679392;84;20221;-78
2021/01/09 00:36:17;;;;;;;;;;;;;;;1.24;90.15;100835.20;1690804;84;20284;-78
2021/01/09 00:38:44;;;;;;;;;;;;;;;1.25;90.17;100838.20;1687548;84;21798;-78
2021/01/09 00:41:10;;;;;;;;;;;;;;;1.25;90.18;100840.75;1676101;84;20275;-77
2021/01/09 00:43:36;;;;;;;;;;;;;;;1.25;90.14;100844.98;1687387;84;20215;-77
2021/01/09 00:46:02;;;;;;;;;;;;;;;1.24;90.14;100839.43;1679083;84;20410;-77
2021/01/09 00:48:28;;;;;;;;;;;;;;;1.25;90.14;100841.16;1682480;84;20770;-77
2021/01/09 00:50:54;;;;;;;;;;;;;;;1.25;90.17;100839.47;1688106;84;21299;-77
2021/01/09 00:53:20;;;;;;;;;;;;;;;1.26;90.18;100842.47;1686663;84;20423;-77
2021/01/09 00:55:46;;;;;;;;;;;;;;;1.26;90.16;100839.92;1686775;84;20214;-77
2021/01/09 00:58:12;;;;;;;;;;;;;;;1.26;90.16;100841.20;1667955;84;20329;-77
2021/01/09 01:00:38;;;;;;;;;;;;;;;1.25;90.17;100845.84;1679179;84;21211;-77
2021/01/09 01:03:05;;;;;;;;;;;;;;;1.27;90.16;100841.64;1690310;84;21962;-77
2021/01/09 01:05:31;;;;;;;;;;;;;;;1.27;90.15;100842.05;1690269;84;20294;-77
2021/01/09 01:07:57;;;;;;;;;;;;;;;1.28;90.17;100847.60;1688333;84;20215;-77
2021/01/09 01:10:23;;;;;;;;;;;;;;;1.28;90.15;100848.88;1681119;84;20277;-77
2021/01/09 01:12:49;;;;;;;;;;;;;;;1.28;90.17;100850.15;1663388;84;20213;-76
2021/01/09 01:15:15;;;;;;;;;;;;;;;1.27;90.15;100854.37;1682622;84;22120;-76
2021/01/09 01:17:44;;;;;;;;;;;;;;;1.28;90.14;100857.37;1689707;84;20287;-76
2021/01/09 01:20:12;;;;;;;;;;;;;;;1.28;90.15;100852.28;1688933;84;20307;-77
2021/01/09 01:22:38;;;;;;;;;;;;;;;1.28;90.14;100851.42;1665773;84;20824;-76
2021/01/09 01:25:05;;;;;;;;;;;;;;;1.28;90.13;100858.66;1675397;84;20242;-76
2021/01/09 01:27:31;;;;;;;;;;;;;;;1.28;90.16;100861.20;1686178;84;21887;-76
2021/01/09 01:29:57;;;;;;;;;;;;;;;1.28;90.16;100861.20;1674198;84;20836;-76
2021/01/09 01:32:23;;;;;;;;;;;;;;;1.28;90.17;100859.92;1676283;84;20747;-76
2021/01/09 01:34:49;;;;;;;;;;;;;;;1.28;90.15;100858.66;1663825;84;20210;-76
2021/01/09 01:37:15;;;;;;;;;;;;;;;1.27;90.13;100860.75;1682802;84;20292;-76
2021/01/09 01:39:41;;;;;;;;;;;;;;;1.27;90.17;100859.48;1673787;84;22282;-76
2021/01/09 01:42:07;;;;;;;;;;;;;;;1.28;90.17;100858.66;1678054;84;20743;-77
2021/01/09 01:44:33;;;;;;;;;;;;;;;1.29;90.18;100859.11;1635605;84;20302;-77
2021/01/09 01:47:00;;;;;;;;;;;;;;;1.30;90.22;100859.97;1679358;83;20191;-77
2021/01/09 01:49:26;;;;;;;;;;;;;;;1.31;90.21;100860.00;1670718;84;20298;-77
2021/01/09 01:51:52;;;;;;;;;;;;;;;1.32;90.20;100860.87;1676979;84;21234;-77
2021/01/09 01:54:21;;;;;;;;;;;;;;;1.31;90.18;100861.69;1676009;84;20732;-77
2021/01/09 01:56:52;;;;;;;;;;;;;;;1.30;90.18;100850.64;1645254;84;20345;-77
2021/01/09 01:59:18;;;;;;;;;;;;;;;1.31;90.20;100859.14;1676553;84;20336;-77
2021/01/09 02:01:45;;;;;;;;;;;;;;;1.31;90.17;100862.55;1682473;84;20822;-77
2021/01/09 02:04:11;;;;;;;;;;;;;;;1.30;90.15;100867.20;1675116;84;21243;-77
2021/01/09 02:06:37;;;;;;;;;;;;;;;1.29;90.15;100866.74;1681841;84;20567;-77
2021/01/09 02:09:09;;;;;;;;;;;;;;;1.30;90.18;100866.33;1670995;84;20324;-77
2021/01/09 02:11:54;;;;;;;;;;;;;;;1.29;90.18;100870.56;1669437;84;20314;-77
2021/01/09 02:14:51;;;;;;;;;;;;;;;1.30;90.16;100873.98;1675999;84;20534;-76
2021/01/09 02:17:18;;;;;;;;;;;;;;;1.29;90.14;100875.66;1678824;84;21013;-76
2021/01/09 02:19:44;;;;;;;;;;;;;;;1.29;90.17;100877.34;1698142;82;20271;-77
2021/01/09 02:22:17;;;;;;;;;;;;;;;1.29;90.22;100878.20;1673709;84;20269;-77
2021/01/09 02:24:45;;;;;;;;;;;;;;;1.31;90.21;100879.52;1667717;83;20279;-76
2021/01/09 02:27:11;;;;;;;;;;;;;;;1.33;90.27;100875.33;1687214;84;20307;-76
2021/01/09 02:29:47;;;;;;;;;;;;;;;1.32;90.23;100874.47;1665944;84;21182;-76
2021/01/09 02:32:16;;;;;;;;;;;;;;;1.30;90.18;100876.11;1678402;83;20796;-76
2021/01/09 02:34:46;;;;;;;;;;;;;;;1.31;90.21;100873.16;1679037;84;20299;-76
2021/01/09 02:37:12;;;;;;;;;;;;;;;1.31;90.19;100877.84;1678278;84;20295;-76
2021/01/09 02:39:39;;;;;;;;;;;;;;;1.31;90.21;100878.25;1683966;84;20606;-77
2021/01/09 02:42:05;;;;;;;;;;;;;;;1.30;90.23;100877.38;1682327;84;21957;-77
2021/01/09 02:44:33;;;;;;;;;;;;;;;1.32;90.20;100878.70;1667502;85;20314;-77
2021/01/09 02:46:59;;;;;;;;;;;;;;;1.33;90.25;100885.52;1685810;84;20302;-77
2021/01/09 02:49:25;;;;;;;;;;;;;;;1.32;90.21;100879.56;1685944;84;20298;-77
2021/01/09 02:51:51;;;;;;;;;;;;;;;1.33;90.22;100882.97;1669667;84;20271;-77
2021/01/09 02:54:17;;;;;;;;;;;;;;;1.33;90.21;100886.80;1683187;84;21099;-77
2021/01/09 02:56:43;;;;;;;;;;;;;;;1.32;90.20;100885.93;1677402;84;20209;-77
2021/01/09 02:59:09;;;;;;;;;;;;;;;1.34;90.24;100888.52;1665658;84;20372;-77
2021/01/09 03:01:35;;;;;;;;;;;;;;;1.33;90.21;100888.06;1677321;84;20323;-77
2021/01/09 03:04:01;;;;;;;;;;;;;;;1.35;90.22;100888.10;1668334;84;20272;-77
2021/01/09 03:06:27;;;;;;;;;;;;;;;1.35;90.22;100893.20;1675902;84;21265;-77
2021/01/09 03:08:53;;;;;;;;;;;;;;;1.33;90.20;100893.16;1689118;84;20226;-77
2021/01/09 03:11:19;;;;;;;;;;;;;;;1.32;90.23;100890.16;1672582;84;20221;-77
2021/01/09 03:13:45;;;;;;;;;;;;;;;1.36;90.27;100896.20;1672608;84;20816;-77
2021/01/09 03:16:12;;;;;;;;;;;;;;;1.34;90.22;100888.52;1675387;84;20305;-76
2021/01/09 03:18:38;;;;;;;;;;;;;;;1.32;90.22;100892.30;1685170;84;21169;-77
2021/01/09 03:21:04;;;;;;;;;;;;;;;1.33;90.29;100894.02;1666939;84;20375;-77
2021/01/09 03:23:30;;;;;;;;;;;;;;;1.32;90.24;100894.84;1672723;84;20270;-77
2021/01/09 03:25:56;;;;;;;;;;;;;;;1.32;90.24;100891.02;1663669;84;20197;-77
2021/01/09 03:28:22;;;;;;;;;;;;;;;1.32;90.28;100891.02;1672918;84;20211;-77
2021/01/09 03:30:48;;;;;;;;;;;;;;;1.33;90.31;100890.20;1666127;84;22207;-77
2021/01/09 03:33:15;;;;;;;;;;;;;;;1.32;90.27;100895.25;1685702;84;20255;-77
2021/01/09 03:35:41;;;;;;;;;;;;;;;1.32;90.26;100895.25;1657735;84;20318;-77
2021/01/09 03:38:06;;;;;;;;;;;;;;;1.29;90.25;100889.67;1690195;83;20742;-77
2021/01/09 03:40:32;;;;;;;;;;;;;;;1.28;90.27;100898.13;1678994;84;21809;-77
2021/01/09 03:42:58;;;;;;;;;;;;;;;1.28;90.30;100894.31;1668280;84;21267;-77
2021/01/09 03:45:24;;;;;;;;;;;;;;;1.28;90.33;100892.18;1670887;84;20315;-77
2021/01/09 03:47:50;;;;;;;;;;;;;;;1.26;90.26;100895.95;1681289;84;20453;-77
2021/01/09 03:50:16;;;;;;;;;;;;;;;1.26;90.31;100901.47;1689690;84;20848;-77
2021/01/09 03:52:42;;;;;;;;;;;;;;;1.26;90.35;100900.19;1659459;84;20352;-76
2021/01/09 03:55:10;;;;;;;;;;;;;;;1.27;90.35;100901.50;1638570;84;21123;-76
2021/01/09 03:57:35;;;;;;;;;;;;;;;1.26;90.34;100902.33;1672297;84;20824;-76
2021/01/09 04:00:04;;;;;;;;;;;;;;;1.27;90.35;100904.05;1675251;84;20264;-76
2021/01/09 04:02:29;;;;;;;;;;;;;;;1.27;90.33;100910.83;1666489;84;20297;-76
2021/01/09 04:04:55;;;;;;;;;;;;;;;1.26;90.35;100909.97;1675844;84;20245;-76
2021/01/09 04:07:21;;;;;;;;;;;;;;;1.27;90.36;100910.42;1669368;84;21181;-76
2021/01/09 04:09:47;;;;;;;;;;;;;;;1.27;90.32;100914.23;1689481;84;20215;-76
2021/01/09 04:12:13;;;;;;;;;;;;;;;1.27;90.34;100910.83;1691844;84;20243;-76
2021/01/09 04:14:39;;;;;;;;;;;;;;;1.27;90.33;100910.42;1688979;84;20323;-76
2021/01/09 04:17:05;;;;;;;;;;;;;;;1.28;90.33;100915.97;1676583;84;20296;-76
2021/01/09 04:19:31;;;;;;;;;;;;;;;1.26;90.31;100916.34;1691004;83;21200;-77
2021/01/09 04:21:57;;;;;;;;;;;;;;;1.25;90.26;100922.25;1679060;84;20250;-77
2021/01/09 04:24:24;;;;;;;;;;;;;;;1.24;90.28;100928.17;1689078;84;20298;-77
2021/01/09 04:26:56;;;;;;;;;;;;;;;1.26;90.33;100930.76;1667854;84;21016;-77
2021/01/09 04:29:22;;;;;;;;;;;;;;;1.27;90.35;100930.80;1683927;84;20286;-77
2021/01/09 04:31:48;;;;;;;;;;;;;;;1.28;90.34;100931.66;1684265;84;21233;-77
2021/01/09 04:34:15;;;;;;;;;;;;;;;1.29;90.33;100935.94;1685173;83;20298;-77
2021/01/09 04:36:41;;;;;;;;;;;;;;;1.27;90.26;100938.85;1691764;83;20338;-77
2021/01/09 04:39:07;;;;;;;;;;;;;;;1.26;90.27;100944.77;1702048;83;20308;-76
2021/01/09 04:41:35;;;;;;;;;;;;;;;1.23;90.20;100940.86;1686556;84;20294;-76
2021/01/09 04:44:03;;;;;;;;;;;;;;;1.22;90.26;100946.78;1689890;84;21201;-76
2021/01/09 04:46:29;;;;;;;;;;;;;;;1.22;90.31;100947.64;1686626;84;20303;-77
2021/01/09 04:48:55;;;;;;;;;;;;;;;1.23;90.31;100948.50;1683241;83;20302;-77
2021/01/09 04:51:22;;;;;;;;;;;;;;;1.25;90.36;100951.95;1691116;83;20318;-77
2021/01/09 04:53:50;;;;;;;;;;;;;;;1.25;90.33;100952.81;1689408;84;20295;-77
2021/01/09 04:56:16;;;;;;;;;;;;;;;1.25;90.31;100955.78;1683295;84;21121;-77
2021/01/09 04:58:42;;;;;;;;;;;;;;;1.24;90.31;100965.10;1685541;84;20303;-76
2021/01/09 05:01:08;;;;;;;;;;;;;;;1.23;90.28;100959.97;1689567;84;20271;-76
2021/01/09 05:03:34;;;;;;;;;;;;;;;1.22;90.25;100965.87;1691523;84;20234;-76
2021/01/09 05:06:00;;;;;;;;;;;;;;;1.18;90.23;100958.98;1674756;84;20295;-76
2021/01/09 05:08:26;;;;;;;;;;;;;;;1.15;90.20;100961.03;1689168;84;21896;-76
2021/01/09 05:10:53;;;;;;;;;;;;;;;1.12;90.19;100960.08;1682373;84;20305;-76
2021/01/09 05:13:23;;;;;;;;;;;;;;;1.10;90.22;100966.81;1671401;84;20305;-76
2021/01/09 05:15:49;;;;;;;;;;;;;;;1.09;90.25;100971.05;1685117;84;20249;-76
2021/01/09 05:18:17;;;;;;;;;;;;;;;1.07;90.15;100970.55;1693917;84;20543;-76
2021/01/09 05:20:43;;;;;;;;;;;;;;;1.03;90.12;100975.99;1689550;84;21228;-77
2021/01/09 05:23:09;;;;;;;;;;;;;;;0.98;90.11;100975.86;1684596;83;20249;-77
2021/01/09 05:25:36;;;;;;;;;;;;;;;0.98;90.16;100978.41;1675222;84;20263;-77
2021/01/09 05:28:05;;;;;;;;;;;;;;;0.98;90.13;100988.59;1660336;83;20251;-77
2021/01/09 05:30:31;;;;;;;;;;;;;;;0.95;90.13;100989.78;1674794;84;20262;-77
2021/01/09 05:33:02;;;;;;;;;;;;;;;0.94;90.13;100990.59;1669272;84;21222;-77
2021/01/09 05:35:31;;;;;;;;;;;;;;;0.93;90.16;100990.14;1685135;83;20289;-76
2021/01/09 05:37:57;;;;;;;;;;;;;;;0.91;90.12;100992.19;1690315;84;20299;-77
2021/01/09 05:40:23;;;;;;;;;;;;;;;0.91;90.15;100994.33;1682465;84;20745;-77
2021/01/09 05:42:50;;;;;;;;;;;;;;;0.91;90.18;100989.64;1681234;84;20501;-77
2021/01/09 05:45:17;;;;;;;;;;;;;;;0.88;90.10;100996.78;1686299;84;21259;-77
2021/01/09 05:47:44;;;;;;;;;;;;;;;0.87;90.14;100995.05;1701763;83;20590;-77
2021/01/09 05:50:11;;;;;;;;;;;;;;;0.87;90.14;100996.33;1677175;84;20607;-77
2021/01/09 05:52:39;;;;;;;;;;;;;;;0.85;90.11;100994.15;1692297;84;20314;-77
2021/01/09 05:55:07;;;;;;;;;;;;;;;0.84;90.12;100996.24;1678952;84;20301;-76
2021/01/09 05:57:34;;;;;;;;;;;;;;;0.83;90.08;100999.60;1694625;83;21976;-76
2021/01/09 06:00:07;;;;;;;;;;;;;;;0.78;90.03;101006.65;1688563;83;20287;-76
2021/01/09 06:03:00;;;;;;;;;;;;;;;0.75;90.03;101004.88;1688250;83;20299;-76
2021/01/09 06:05:29;;;;;;;;;;;;;;;0.72;90.03;101003.92;1658953;84;20301;-76
2021/01/09 06:07:55;;;;;;;;;;;;;;;0.72;90.12;101013.69;1674574;84;20264;-76
2021/01/09 06:10:22;;;;;;;;;;;;;;;0.68;90.01;101010.59;1691644;83;21270;-76
2021/01/09 06:13:01;;;;;;;;;;;;;;;0.66;90.09;101014.37;1682973;83;20558;-76
2021/01/09 06:15:31;;;;;;;;;;;;;;;0.67;90.12;101022.86;1687853;83;20273;-76
2021/01/09 06:17:59;;;;;;;;;;;;;;;0.67;90.10;101019.05;1689604;83;20910;-76
2021/01/09 06:20:26;;;;;;;;;;;;;;;0.65;90.06;101025.77;1693156;83;21007;-76
2021/01/09 06:22:54;;;;;;;;;;;;;;;0.63;90.05;101030.81;1679669;84;21240;-76
2021/01/09 06:25:20;;;;;;;;;;;;;;;0.62;90.06;101030.77;1680688;84;20303;-76
2021/01/09 06:27:49;;;;;;;;;;;;;;;0.58;90.04;101036.17;1686644;84;20322;-76
2021/01/09 06:30:18;;;;;;;;;;;;;;;0.58;90.04;101039.12;1696504;84;20629;-76
2021/01/09 06:32:56;;;;;;;;;;;;;;;0.55;90.03;101043.70;1680757;84;20303;-76
2021/01/09 06:35:22;;;;;;;;;;;;;;;0.54;89.99;101049.61;1671730;84;21318;-76
2021/01/09 06:37:48;;;;;;;;;;;;;;;0.54;90.06;101048.34;1675724;84;20360;-76
2021/01/09 06:40:14;;;;;;;;;;;;;;;0.54;90.05;101047.47;1679726;84;20692;-76
2021/01/09 06:42:41;;;;;;;;;;;;;;;0.52;90.00;101049.97;1675621;84;20760;-76
2021/01/09 06:45:09;;;;;;;;;;;;;;;0.52;90.02;101051.24;1689660;84;20275;-76
2021/01/09 06:47:35;;;;;;;;;;;;;;;0.52;90.01;101055.50;1670175;84;21180;-77
2021/01/09 06:50:26;;;;;;;;;;;;;;;0.51;90.01;101055.05;1680875;84;20328;-76
2021/01/09 06:52:57;;;;;;;;;;;;;;;0.50;89.98;101060.54;1689029;84;20398;-76
2021/01/09 06:55:40;;;;;;;;;;;;;;;0.49;90.00;101058.81;1674483;84;20610;-76
2021/01/09 06:58:07;;;;;;;;;;;;;;;0.48;89.96;101062.58;1649999;86;20310;-79
2021/01/09 07:00:35;;;;;;;;;;;;;;;0.48;90.00;101062.17;1607755;86;21180;-77
2021/01/09 07:03:17;;;;;;;;;;;;;;;0.48;90.06;101065.98;1649458;86;20583;-76
2021/01/09 07:05:54;;;;;;;;;;;;;;;0.50;90.05;101064.77;1648080;86;20326;-77
2021/01/09 07:08:32;;;;;;;;;;;;;;;0.50;90.07;101065.62;1643572;86;20835;-77
2021/01/09 07:11:00;;;;;;;;;;;;;;;0.50;90.04;101070.72;1645943;86;20430;-78
2021/01/09 07:13:27;;;;;;;;;;;;;;;0.53;90.09;101075.87;1649023;85;21257;-78
2021/01/09 07:16:11;;;;;;;;;;;;;;;0.55;90.09;101078.05;1649114;86;20322;-78
2021/01/09 07:18:39;;;;;;;;;;;;;;;0.57;90.11;101076.83;1646789;85;20343;-78
2021/01/09 07:21:07;;;;;;;;;;;;;;;0.57;90.08;101077.70;1646271;85;20682;-80
2021/01/09 07:23:34;;;;;;;;;;;;;;;0.60;90.13;101082.88;1652124;86;20343;-79
2021/01/09 07:26:02;;;;;;;;;;;;;;;0.61;90.06;101076.11;1627218;86;21267;-82
2021/01/09 07:28:34;;;;;;;;;;;;;;;0.60;90.06;101076.52;1653797;86;20634;-80
2021/01/09 07:31:04;;;;;;;;;;;;;;;0.62;90.03;101084.20;1648638;85;20572;-81
2021/01/09 07:33:32;;;;;;;;;;;;;;;0.61;90.01;101082.06;1628268;86;20466;-80
2021/01/09 07:35:59;;;;;;;;;;;;;;;0.60;89.96;101084.16;1666202;84;20930;-80
2021/01/09 07:38:25;;;;;;;;;;;;;;;0.59;89.95;101086.66;1689803;83;21169;-81
2021/01/09 07:41:00;;;;;;;;;;;;;;;0.58;89.93;101092.14;1690049;83;20399;-81
2021/01/09 07:43:41;;;;;;;;;;;;;;;0.58;89.94;101097.23;1682389;84;20326;-80
2021/01/09 07:46:27;;;;;;;;;;;;;;;0.58;89.93;101093.83;1685359;83;20332;-80
2021/01/09 07:48:55;;;;;;;;;;;;;;;0.57;89.89;101097.19;1681052;84;20295;-80
2021/01/09 07:51:41;;;;;;;;;;;;;;;0.55;89.88;101095.86;1669453;84;21156;-80
2021/01/09 07:54:08;;;;;;;;;;;;;;;0.53;89.85;101101.31;1688849;84;20321;-80
2021/01/09 07:56:36;;;;;;;;;;;;;;;0.52;89.89;101100.86;1659717;84;20300;-80
2021/01/09 07:59:02;;;;;;;;;;;;;;;0.52;89.92;101102.13;1688075;84;20307;-80
2021/01/09 08:01:28;;;;;;;;;;;;;;;0.50;89.86;101107.61;1676624;84;20246;-80
2021/01/09 08:03:54;;;;;;;;;;;;;;;0.49;89.89;101110.97;1669873;84;21779;-80
2021/01/09 08:06:20;;;;;;;;;;;;;;;0.47;89.81;101108.78;1690443;84;20847;-80
2021/01/09 08:08:50;;;;;;;;;;;;;;;0.46;89.86;101118.91;1681849;84;20778;-80
2021/01/09 08:11:16;;;;;;;;;;;;;;;0.49;89.94;101121.55;1662649;84;20860;-80
2021/01/09 08:13:42;;;;;;;;;;;;;;;0.50;89.95;101122.01;1687942;84;20878;-80
2021/01/09 08:16:08;;;;;;;;;;;;;;;0.50;89.98;101124.14;1687477;84;21311;-81
2021/01/09 08:18:34;;;;;;;;;;;;;;;0.51;89.94;101128.83;1680899;83;20260;-81
2021/01/09 08:21:00;;;;;;;;;;;;;;;0.51;89.91;101130.09;1684061;84;20213;-81
2021/01/09 08:23:26;;;;;;;;;;;;;;;0.51;89.91;101130.96;1676718;83;20785;-81
2021/01/09 08:25:53;;;;;;;;;;;;;;;0.52;89.95;101130.55;1681706;84;20290;-81
2021/01/09 08:28:19;;;;;;;;;;;;;;;0.53;89.96;101129.30;1684035;84;21191;-81
2021/01/09 08:30:46;;;;;;;;;;;;;;;0.55;89.96;101137.84;1668847;84;20471;-81
2021/01/09 08:33:14;;;;;;;;;;;;;;;0.57;89.98;101140.44;1667362;84;20293;-81
2021/01/09 08:35:49;;;;;;;;;;;;;;;0.57;90.00;101136.22;1686764;84;20350;-81
2021/01/09 08:38:15;;;;;;;;;;;;;;;0.59;90.03;101144.77;1691957;84;20443;-81
2021/01/09 08:40:44;;;;;;;;;;;;;;;0.61;90.03;101148.23;1682504;83;21269;-81
2021/01/09 08:43:13;;;;;;;;;;;;;;;0.63;90.05;101146.59;1675335;84;20444;-81
2021/01/09 08:45:53;;;;;;;;;;;;;;;0.64;90.01;101152.55;1691807;83;20247;-81
2021/01/09 08:48:30;;;;;;;;;;;;;;;0.64;89.99;101153.83;1686263;83;20814;-81
2021/01/09 08:51:10;;;;;;;;;;;;;;;0.64;89.99;101155.96;1680562;84;20273;-81
2021/01/09 08:53:58;;;;;;;;;;;;;;;0.65;90.01;101153.02;1657863;84;21731;-81
2021/01/09 08:56:27;;;;;;;;;;;;;;;0.64;89.98;101155.96;1690205;84;20516;-81
2021/01/09 08:58:53;;;;;;;;;;;;;;;0.66;89.99;101159.83;1665669;84;20257;-80
2021/01/09 09:01:29;;;;;;;;;;;;;;;0.68;89.97;101163.70;1683446;84;20746;-80
2021/01/09 09:03:56;;;;;;;;;;;;;;;0.65;89.92;101170.41;1672285;84;20283;-80
2021/01/09 09:06:23;;;;;;;;;;;;;;;0.62;89.79;101174.54;1674332;84;21051;-80
2021/01/09 09:08:49;;;;;;;;;;;;;;;0.59;89.85;101172.76;1673699;84;20299;-80
2021/01/09 09:11:16;;;;;;;;;;;;;;;0.60;89.89;101181.25;1675622;84;20307;-81
2021/01/09 09:13:42;;;;;;;;;;;;;;;0.62;89.96;101172.00;1689828;84;20298;-81
2021/01/09 09:16:19;;;;;;;;;;;;;;;0.62;89.87;101172.00;1681998;84;20289;-81
2021/01/09 09:18:46;;;;;;;;;;;;;;;0.61;89.85;101176.63;1682466;84;21178;-81
2021/01/09 09:21:12;;;;;;;;;;;;;;;0.58;89.78;101173.57;1692528;84;20286;-81
2021/01/09 09:23:38;;;;;;;;;;;;;;;0.57;89.76;101174.80;1690543;84;20296;-81
2021/01/09 09:26:13;;;;;;;;;;;;;;;0.56;89.79;101176.47;1670004;84;20277;-81
2021/01/09 09:28:54;;;;;;;;;;;;;;;0.57;89.84;101177.34;1691246;84;20290;-81
2021/01/09 09:31:25;;;;;;;;;;;;;;;0.58;89.90;101173.98;1667406;83;21240;-81
2021/01/09 09:34:09;;;;;;;;;;;;;;;0.60;89.98;101170.67;1682388;84;37499;-81
2021/01/09 09:36:40;;;;;;;;;;;;;;;0.63;90.00;101170.77;1688213;84;20283;-81
2021/01/09 09:39:12;;;;;;;;;;;;;;;0.64;89.89;101171.64;1681428;84;20554;-80
2021/01/09 09:41:45;;;;;;;;;;;;;;;0.62;89.87;101170.31;1679710;83;20269;-80
2021/01/09 09:44:10;;;;;;;;;;;;;;;0.62;89.87;101170.72;1667042;84;21196;-81
2021/01/09 09:46:41;;;;;;;;;;;;;;;0.62;89.89;101165.23;1682688;84;20187;-81
2021/01/09 09:49:07;;;;;;;;;;;;;;;0.63;89.86;101168.64;1691279;84;20291;-81
2021/01/09 09:51:36;;;;;;;;;;;;;;;0.63;89.87;101163.14;1682165;84;20276;-81
2021/01/09 09:54:04;;;;;;;;;;;;;;;0.63;89.89;101161.87;1674072;84;20276;-81
2021/01/09 09:56:43;;;;;;;;;;;;;;;0.63;89.83;101168.23;1678195;83;21817;-81
2021/01/09 09:59:11;;;;;;;;;;;;;;;0.62;89.75;101163.95;1680081;84;20284;-81
2021/01/09 10:01:37;;;;;;;;;;;;;;;0.62;89.80;101155.05;1688242;84;20575;-81
2021/01/09 10:04:11;;;;;;;;;;;;;;;0.64;89.86;101159.78;1679130;84;20259;-81
2021/01/09 10:06:37;;;;;;;;;;;;;;;0.67;89.86;101160.28;1684382;84;20287;-81
2021/01/09 10:09:19;;;;;;;;;;;;;;;0.70;89.90;101160.39;1680174;84;21833;-81
2021/01/09 10:11:46;;;;;;;;;;;;;;;0.69;89.80;101168.84;1654547;84;20272;-80
2021/01/09 10:14:12;;;;;;;;;;;;;;;0.69;89.79;101165.02;1675190;84;20305;-80
2021/01/09 10:16:39;;;;;;;;;;;;;;;0.71;89.83;101170.16;1671764;84;20402;-81
2021/01/09 10:19:05;;;;;;;;;;;;;;;0.69;89.76;101167.97;1686651;84;20593;-81
2021/01/09 10:21:32;;;;;;;;;;;;;;;0.66;89.73;101170.01;1667424;84;21301;-81
2021/01/09 10:23:59;;;;;;;;;;;;;;;0.66;89.75;101166.19;1675613;84;21031;-80
2021/01/09 10:26:26;;;;;;;;;;;;;;;0.69;89.82;101167.97;1685974;84;20298;-80
2021/01/09 10:28:52;;;;;;;;;;;;;;;0.73;89.89;101163.44;1677525;84;20310;-80
2021/01/09 10:31:18;;;;;;;;;;;;;;;0.76;89.96;101161.86;1661736;84;20288;-80
2021/01/09 10:33:44;;;;;;;;;;;;;;;0.82;89.87;101158.65;1687575;83;21267;-81
2021/01/09 10:36:10;;;;;;;;;;;;;;;0.85;89.92;101160.02;1671105;84;20281;-81
2021/01/09 10:38:36;;;;;;;;;;;;;;;0.87;89.86;101159.66;1668015;83;20303;-81
2021/01/09 10:41:02;;;;;;;;;;;;;;;0.88;89.82;101167.34;1683508;84;20644;-80
2021/01/09 10:43:28;;;;;;;;;;;;;;;0.90;89.84;101166.98;1686662;84;20393;-80
2021/01/09 10:45:54;;;;;;;;;;;;;;;0.90;89.76;101170.81;1677214;84;21259;-80
2021/01/09 10:48:20;;;;;;;;;;;;;;;0.91;89.76;101169.13;1666706;84;20804;-80
2021/01/09 10:50:46;;;;;;;;;;;;;;;0.92;89.81;101173.41;1706343;83;20266;-80
2021/01/09 10:53:12;;;;;;;;;;;;;;;0.91;89.79;101171.27;1691681;84;20223;-80
2021/01/09 10:55:40;;;;;;;;;;;;;;;0.92;89.82;101173.00;1685330;84;20864;-80
2021/01/09 10:58:06;;;;;;;;;;;;;;;0.95;89.81;101178.19;1672380;84;20290;-80
2021/01/09 11:00:32;;;;;;;;;;;;;;;0.97;89.82;101171.88;1622895;86;20213;-80
2021/01/09 11:02:59;;;;;;;;;;;;;;;0.97;89.87;101176.55;1674462;84;20283;-80
2021/01/09 11:05:29;;;;;;;;;;;;;;;0.99;89.86;101170.23;1676679;84;20289;-80
2021/01/09 11:07:53;;;;;;;;;;;;;;;1.02;89.90;101175.42;1668475;84;20300;-80
2021/01/09 11:10:19;;;;;;;;;;;;;;;1.03;89.84;101172.06;1690016;84;21266;-80
2021/01/09 11:12:45;;;;;;;;;;;;;;;1.04;89.85;101180.13;1685949;84;20310;-80
2021/01/09 11:15:11;;;;;;;;;;;;;;;1.07;89.86;101180.62;1669183;84;20347;-80
2021/01/09 11:17:37;;;;;;;;;;;;;;;1.09;89.89;101184.95;1688466;84;20602;-80
2021/01/09 11:20:04;;;;;;;;;;;;;;;1.11;89.90;101187.14;1677411;83;20792;-80
2021/01/09 11:22:30;;;;;;;;;;;;;;;1.13;89.87;101182.09;1688972;84;21199;-80
2021/01/09 11:24:56;;;;;;;;;;;;;;;1.14;89.88;101183.42;1661081;84;20620;-80
2021/01/09 11:27:22;;;;;;;;;;;;;;;1.18;89.90;101186.52;1674400;84;20231;-80
2021/01/09 11:29:48;;;;;;;;;;;;;;;1.18;89.85;101185.25;1691648;84;20742;-80
2021/01/09 11:32:14;;;;;;;;;;;;;;;1.19;89.86;101181.88;1676342;84;20310;-80
2021/01/09 11:34:40;;;;;;;;;;;;;;;1.20;89.85;101186.56;1677917;84;21115;-80
2021/01/09 11:37:06;;;;;;;;;;;;;;;1.18;89.76;101184.38;1683630;84;20306;-80
2021/01/09 11:39:32;;;;;;;;;;;;;;;1.17;89.79;101180.97;1681769;84;20781;-80
2021/01/09 11:41:58;;;;;;;;;;;;;;;1.18;89.76;101186.92;1689061;83;20403;-80
2021/01/09 11:44:24;;;;;;;;;;;;;;;1.13;89.67;101181.69;1685403;84;20291;-80
2021/01/09 11:46:50;;;;;;;;;;;;;;;1.13;89.67;101183.38;1668868;84;22016;-81
2021/01/09 11:49:16;;;;;;;;;;;;;;;1.08;89.56;101181.95;1692000;84;20578;-81
2021/01/09 11:51:42;;;;;;;;;;;;;;;1.05;89.60;101181.86;1669168;83;20664;-81
2021/01/09 11:54:08;;;;;;;;;;;;;;;1.05;89.68;101178.03;1689579;84;20809;-81
2021/01/09 11:56:34;;;;;;;;;;;;;;;1.04;89.67;101182.67;1680403;84;20191;-81
2021/01/09 11:59:00;;;;;;;;;;;;;;;1.03;89.68;101177.16;1668231;84;150006;-81
2021/01/09 12:01:32;;;;;;;;;;;;;;;1.04;89.71;101177.58;1660629;86;20323;-81
2021/01/09 12:03:58;;;;;;;;;;;;;;;0.99;89.62;101181.28;1617884;86;20271;-81
2021/01/09 12:06:24;;;;;;;;;;;;;;;0.97;89.66;101184.19;1660556;86;20248;-81
2021/01/09 12:08:50;;;;;;;;;;;;;;;0.96;89.62;101182.87;1657663;86;20312;-81
2021/01/09 12:11:20;;;;;;;;;;;;;;;0.91;89.57;101189.09;1638277;86;21183;-80
2021/01/09 12:13:46;;;;;;;;;;;;;;;0.88;89.61;101190.26;1658672;86;20676;-80
2021/01/09 12:16:12;;;;;;;;;;;;;;;0.88;89.64;101194.48;1654432;86;20587;-80
2021/01/09 12:18:38;;;;;;;;;;;;;;;0.85;89.67;101195.66;1660057;85;20331;-81
2021/01/09 12:21:05;;;;;;;;;;;;;;;0.87;89.70;101190.20;1655811;86;20207;-81
2021/01/09 12:23:31;;;;;;;;;;;;;;;0.89;89.77;101191.99;1651232;86;21280;-81
2021/01/09 12:25:57;;;;;;;;;;;;;;;0.88;89.68;101191.53;1660607;86;20199;-81
2021/01/09 12:28:23;;;;;;;;;;;;;;;0.89;89.69;101188.58;1659936;86;20203;-81
2021/01/09 12:30:49;;;;;;;;;;;;;;;0.91;89.72;101189.50;1658312;86;20295;-81
2021/01/09 12:33:16;;;;;;;;;;;;;;;0.92;89.74;101192.50;1617884;87;20637;-81
2021/01/09 12:35:43;;;;;;;;;;;;;;;0.93;89.73;101190.41;1652047;86;21216;-81
2021/01/09 12:38:09;;;;;;;;;;;;;;;0.94;89.67;101196.83;1623536;88;20286;-81
2021/01/09 12:40:35;;;;;;;;;;;;;;;0.97;89.74;101191.83;1650763;86;20788;-81
2021/01/09 12:43:02;;;;;;;;;;;;;;;0.99;89.77;101186.37;1648466;86;20654;-81
2021/01/09 12:45:28;;;;;;;;;;;;;;;1.04;89.82;101189.04;1650239;86;20869;-81
2021/01/09 12:47:54;;;;;;;;;;;;;;;1.07;89.77;101192.95;1649627;86;21201;-81
2021/01/09 12:50:20;;;;;;;;;;;;;;;1.09;89.75;101191.73;1651027;86;20200;-81
2021/01/09 12:52:46;;;;;;;;;;;;;;;1.10;89.72;101193.46;1648551;86;20477;-81